Time;durP1;ratioP1;P1;durP2;ratioP2;P2;SDS_P1;SDS_P2;PMS_P1;PMS_P2;Temp;Humidity;BMP_temperature;BMP_pressure;BME280_temperature;BME280_humidity;BME280_pressure;Samples;Min_cycle;Max_cycle;Signal;HPM_P1;HPM_P2
2023/04/18 00:01:53;;;;;;;16.55;12.02;;;;;;;10.03;100.00;92528.41;5086381;28;20508;-71
2023/04/18 00:04:19;;;;;;;17.30;12.32;;;;;;;10.00;100.00;92518.56;5075417;28;20089;-71
2023/04/18 00:06:48;;;;;;;15.93;12.30;;;;;;;10.08;100.00;92525.16;5087517;28;20113;-71
2023/04/18 00:09:15;;;;;;;15.43;11.35;;;;;;;10.04;100.00;92516.34;5087356;28;20048;-71
2023/04/18 00:11:42;;;;;;;15.90;11.70;;;;;;;10.11;100.00;92529.06;5087238;28;20094;-71
2023/04/18 00:14:09;;;;;;;15.25;11.18;;;;;;;10.07;100.00;92527.94;5087801;28;20048;-71
2023/04/18 00:16:36;;;;;;;13.82;10.95;;;;;;;9.98;100.00;92515.47;5080765;28;20063;-71
2023/04/18 00:19:04;;;;;;;15.05;10.55;;;;;;;10.03;100.00;92527.63;5086327;28;20469;-71
2023/04/18 00:21:31;;;;;;;14.13;11.50;;;;;;;10.01;100.00;92519.38;5085927;28;20050;-71
2023/04/18 00:23:59;;;;;;;16.42;11.48;;;;;;;10.01;100.00;92524.50;5084261;28;20044;-71
2023/04/18 00:26:27;;;;;;;16.02;11.98;;;;;;;10.01;100.00;92520.13;5087843;28;20044;-71
2023/04/18 00:28:53;;;;;;;40.38;24.08;;;;;;;9.99;100.00;92519.59;5087245;28;20047;-71
2023/04/18 00:31:20;;;;;;;26.05;17.83;;;;;;;10.00;100.00;92525.50;5079628;28;20122;-71
2023/04/18 00:33:47;;;;;;;19.88;13.93;;;;;;;10.00;100.00;92525.50;5080524;28;20040;-71
2023/04/18 00:36:13;;;;;;;19.88;13.63;;;;;;;10.00;100.00;92522.94;5070116;28;20109;-71
2023/04/18 00:38:40;;;;;;;20.77;14.50;;;;;;;9.94;100.00;92508.41;5079697;28;20048;-71
2023/04/18 00:41:08;;;;;;;20.50;13.65;;;;;;;9.99;100.00;92519.59;5073625;28;20084;-71
2023/04/18 00:43:36;;;;;;;20.20;14.13;;;;;;;10.00;100.00;92505.75;5074123;28;20071;-71
2023/04/18 00:46:02;;;;;;;21.23;14.98;;;;;;;10.01;100.00;92512.44;5074108;28;20052;-71
2023/04/18 00:48:29;;;;;;;17.45;13.23;;;;;;;9.95;100.00;92510.78;5084730;28;20048;-71
2023/04/18 00:50:59;;;;;;;18.83;13.55;;;;;;;9.96;100.00;92506.44;5070516;28;20454;-72
2023/04/18 00:53:25;;;;;;;17.20;12.63;;;;;;;9.97;100.00;92506.22;5077715;28;20521;-72
2023/04/18 00:55:53;;;;;;;15.35;11.75;;;;;;;9.96;100.00;92496.16;5074358;28;20451;-72
2023/04/18 00:58:21;;;;;;;15.27;11.00;;;;;;;9.86;100.00;92483.91;5076647;28;20106;-72
2023/04/18 01:00:53;;;;;;;14.68;11.13;;;;;;;9.94;100.00;92498.16;5071992;28;20044;-72
2023/04/18 01:03:21;;;;;;;14.80;10.50;;;;;;;9.93;100.00;92494.03;5074437;28;20523;-71
2023/04/18 01:05:48;;;;;;;16.17;11.20;;;;;;;9.93;100.00;92494.03;5080227;28;20130;-71
2023/04/18 01:08:15;;;;;;;13.57;10.27;;;;;;;9.92;100.00;92498.41;5081170;28;20044;-71
2023/04/18 01:10:42;;;;;;;14.15;10.43;;;;;;;9.91;100.00;92493.50;5074034;28;20098;-71
2023/04/18 01:13:16;;;;;;;15.73;10.98;;;;;;;9.86;100.00;92494.16;5082364;28;20545;-71
2023/04/18 01:15:46;;;;;;;14.05;10.15;;;;;;;9.88;100.00;92492.16;5084388;28;20542;-71
2023/04/18 01:18:15;;;;;;;12.90;9.85;;;;;;;9.84;100.00;92491.81;5071017;28;20106;-71
2023/04/18 01:20:46;;;;;;;11.68;9.25;;;;;;;9.81;100.00;92488.91;5089230;28;20888;-71
2023/04/18 01:23:13;;;;;;;12.50;9.05;;;;;;;9.79;100.00;92496.81;5077540;28;20495;-71
2023/04/18 01:25:41;;;;;;;14.02;9.63;;;;;;;9.76;100.00;92498.06;5080901;28;20455;-71
2023/04/18 01:28:08;;;;;;;11.32;8.50;;;;;;;9.73;100.00;92492.59;5084016;28;20048;-71
2023/04/18 01:30:35;;;;;;;12.48;8.82;;;;;;;9.62;100.00;92492.34;5081591;28;20442;-71
2023/04/18 01:33:03;;;;;;;11.65;9.07;;;;;;;9.61;100.00;92483.09;5086222;28;20048;-71
2023/04/18 01:35:33;;;;;;;12.27;9.35;;;;;;;9.63;100.00;92485.44;5072955;28;20053;-71
2023/04/18 01:38:00;;;;;;;15.52;10.07;;;;;;;9.60;100.00;92486.69;5083558;28;20052;-71
2023/04/18 01:40:27;;;;;;;14.05;10.90;;;;;;;9.54;100.00;92482.41;5078453;28;20040;-71
2023/04/18 01:42:55;;;;;;;13.35;10.95;;;;;;;9.51;100.00;92482.84;5076992;28;20122;-71
2023/04/18 01:45:22;;;;;;;14.73;10.98;;;;;;;9.47;100.00;92482.53;5082061;28;20052;-71
2023/04/18 01:47:48;;;;;;;14.85;11.02;;;;;;;9.48;100.00;92483.28;5083939;28;20051;-71
2023/04/18 01:50:15;;;;;;;16.15;12.00;;;;;;;9.42;100.00;92487.53;5078959;28;20048;-71
2023/04/18 01:52:42;;;;;;;15.20;11.57;;;;;;;9.40;100.00;92483.63;5077300;28;20156;-71
2023/04/18 01:55:09;;;;;;;15.40;11.90;;;;;;;9.32;100.00;92480.38;5080509;28;20105;-71
2023/04/18 01:57:36;;;;;;;17.02;12.73;;;;;;;9.29;100.00;92473.13;5083449;28;20045;-71
2023/04/18 02:00:06;;;;;;;17.60;13.85;;;;;;;9.22;100.00;92470.66;5081048;28;20500;-71
2023/04/18 02:02:33;;;;;;;13.40;10.23;;;;;;;9.17;100.00;92469.75;5076600;28;20044;-71
2023/04/18 02:05:00;;;;;;;14.30;11.30;;;;;;;9.03;100.00;92456.34;5078638;28;20155;-71
2023/04/18 02:07:26;;;;;;;14.35;10.90;;;;;;;9.05;100.00;92483.31;5084545;28;20052;-71
2023/04/18 02:09:53;;;;;;;13.82;10.68;;;;;;;8.97;100.00;92478.47;5082431;28;20078;-71
2023/04/18 02:12:20;;;;;;;13.05;10.43;;;;;;;8.95;100.00;92490.72;5073990;28;20097;-71
2023/04/18 02:14:51;;;;;;;12.95;9.95;;;;;;;8.92;100.00;92493.72;5079766;28;20048;-71
2023/04/18 02:17:22;;;;;;;14.00;10.93;;;;;;;8.88;100.00;92490.81;5083045;28;20070;-71
2023/04/18 02:19:49;;;;;;;11.98;9.57;;;;;;;8.89;100.00;92494.94;5081012;28;20044;-71
2023/04/18 02:22:15;;;;;;;12.35;9.85;;;;;;;8.86;100.00;92495.38;5081521;28;20049;-71
2023/04/18 02:24:42;;;;;;;13.15;10.00;;;;;;;8.86;100.00;92492.03;5083366;28;20052;-71
2023/04/18 02:27:10;;;;;;;13.30;10.38;;;;;;;8.86;100.00;92494.59;5072459;28;20106;-71
2023/04/18 02:29:36;;;;;;;13.75;10.57;;;;;;;8.84;100.00;92494.78;5083032;28;20446;-71
2023/04/18 02:32:03;;;;;;;14.50;10.65;;;;;;;8.85;100.00;92498.16;5076870;28;20093;-71
2023/04/18 02:34:32;;;;;;;15.00;11.18;;;;;;;8.85;100.00;92498.16;5075898;28;20310;-71
2023/04/18 02:36:59;;;;;;;14.27;10.18;;;;;;;8.88;100.00;92510.53;5081597;28;20425;-72
2023/04/18 02:39:25;;;;;;;12.95;9.98;;;;;;;8.85;100.00;92508.41;5082450;28;20446;-72
2023/04/18 02:41:52;;;;;;;13.13;10.32;;;;;;;8.81;100.00;92503.69;5082986;28;20052;-72
2023/04/18 02:44:19;;;;;;;13.85;10.52;;;;;;;8.86;100.00;92504.81;5082407;28;20097;-72
2023/04/18 02:46:46;;;;;;;15.95;11.45;;;;;;;8.88;100.00;92502.84;5063240;28;20055;-72
2023/04/18 02:49:13;;;;;;;13.95;11.10;;;;;;;8.88;100.00;92502.84;5075871;28;20386;-72
2023/04/18 02:51:41;;;;;;;15.50;11.15;;;;;;;8.91;100.00;92499.84;5081682;28;20052;-72
2023/04/18 02:54:08;;;;;;;16.27;12.38;;;;;;;8.92;100.00;92501.41;5083692;28;20051;-72
2023/04/18 02:56:38;;;;;;;15.85;11.80;;;;;;;8.88;100.00;92495.16;5089420;28;20101;-72
2023/04/18 02:59:05;;;;;;;18.73;12.10;;;;;;;8.93;100.00;92498.63;5088467;28;20052;-72
2023/04/18 03:01:44;;;;;;;16.50;12.07;;;;;;;8.92;100.00;92502.19;5089465;28;20052;-71
2023/04/18 03:04:11;;;;;;;15.82;11.30;;;;;;;8.92;100.00;92503.97;5088510;28;20446;-71
2023/04/18 03:06:38;;;;;;;14.65;10.98;;;;;;;8.91;100.00;92503.19;5089058;28;20054;-71
2023/04/18 03:09:06;;;;;;;17.20;11.85;;;;;;;8.90;100.00;92511.09;5088648;28;20412;-72
2023/04/18 03:11:32;;;;;;;20.38;13.05;;;;;;;8.89;100.00;92506.97;5088878;28;20500;-71
2023/04/18 03:13:59;;;;;;;18.45;11.88;;;;;;;8.89;100.00;92514.66;5088886;28;20280;-71
2023/04/18 03:16:26;;;;;;;18.00;12.35;;;;;;;8.91;100.00;92520.34;5088645;28;20423;-71
2023/04/18 03:18:52;;;;;;;19.02;12.77;;;;;;;8.91;100.00;92517.78;5088452;28;20048;-71
2023/04/18 03:21:19;;;;;;;19.55;13.93;;;;;;;8.91;100.00;92525.47;5088168;28;20073;-71
2023/04/18 03:23:46;;;;;;;20.52;13.05;;;;;;;8.92;100.00;92517.56;5088912;28;20641;-71
2023/04/18 03:26:15;;;;;;;20.50;14.35;;;;;;;8.93;100.00;92529.38;5088606;28;20094;-71
2023/04/18 03:28:41;;;;;;;18.90;13.40;;;;;;;8.94;100.00;92527.59;5088431;28;20044;-71
2023/04/18 03:31:08;;;;;;;17.98;12.43;;;;;;;8.94;100.00;92530.91;5088013;28;20093;-72
2023/04/18 03:33:35;;;;;;;19.83;14.07;;;;;;;8.93;100.00;92523.44;5088156;28;20052;-72
2023/04/18 03:36:02;;;;;;;20.27;14.38;;;;;;;8.67;100.00;92512.53;5088091;28;20043;-72
2023/04/18 03:38:28;;;;;;;22.52;14.52;;;;;;;8.62;100.00;92520.09;5088275;28;20052;-72
2023/04/18 03:40:55;;;;;;;18.55;14.52;;;;;;;8.41;100.00;92519.47;5087392;28;20044;-72
2023/04/18 03:43:23;;;;;;;23.20;15.40;;;;;;;8.30;100.00;92523.53;5088421;28;20048;-72
2023/04/18 03:45:50;;;;;;;20.08;14.77;;;;;;;8.27;100.00;92522.19;5087668;28;20462;-72
2023/04/18 03:48:16;;;;;;;21.30;14.40;;;;;;;8.28;100.00;92521.19;5088090;28;20052;-72
2023/04/18 03:50:43;;;;;;;19.70;14.15;;;;;;;8.27;100.00;92517.06;5087741;28;20100;-72
2023/04/18 03:53:10;;;;;;;20.83;14.40;;;;;;;8.31;100.00;92522.53;5088360;28;20225;-72
2023/04/18 03:55:37;;;;;;;21.05;14.93;;;;;;;8.36;100.00;92521.88;5087603;28;20478;-72
2023/04/18 03:58:04;;;;;;;20.45;14.35;;;;;;;8.41;100.00;92527.94;5088067;28;20048;-72
2023/04/18 04:00:32;;;;;;;19.50;13.15;;;;;;;8.50;100.00;92535.34;5087384;28;20040;-72
2023/04/18 04:02:59;;;;;;;18.80;13.32;;;;;;;8.58;100.00;92524.84;5087952;28;20097;-72
2023/04/18 04:05:26;;;;;;;19.88;14.15;;;;;;;8.68;100.00;92537.16;5087766;28;20040;-72
2023/04/18 04:07:52;;;;;;;16.75;12.82;;;;;;;8.63;100.00;92540.34;5085015;28;20048;-72
2023/04/18 04:10:19;;;;;;;18.02;12.77;;;;;;;8.68;100.00;92537.16;5087300;28;20449;-72
2023/04/18 04:12:46;;;;;;;18.95;13.50;;;;;;;8.73;100.00;92547.53;5075311;28;20059;-72
2023/04/18 04:15:13;;;;;;;22.25;15.00;;;;;;;8.74;100.00;92548.31;5086283;28;20058;-72
2023/04/18 04:17:41;;;;;;;33.70;21.90;;;;;;;8.76;100.00;92549.69;5087701;28;20056;-71
2023/04/18 04:20:08;;;;;;;22.70;16.25;;;;;;;8.79;100.00;92554.34;5087284;28;20056;-71
2023/04/18 04:22:36;;;;;;;21.30;15.50;;;;;;;8.83;100.00;92547.03;5087275;28;20070;-71
2023/04/18 04:25:04;;;;;;;18.90;12.73;;;;;;;8.78;100.00;92537.44;5087159;28;20095;-71
2023/04/18 04:27:32;;;;;;;23.45;15.70;;;;;;;8.94;100.00;92543.72;5087750;28;20121;-71
2023/04/18 04:30:01;;;;;;;25.13;16.92;;;;;;;9.02;100.00;92549.56;5087341;28;20071;-71
2023/04/18 04:32:28;;;;;;;27.70;16.48;;;;;;;9.06;100.00;92553.25;5087033;28;20058;-71
2023/04/18 04:34:56;;;;;;;24.08;16.23;;;;;;;9.06;100.00;92541.22;5086873;28;20101;-71
2023/04/18 04:37:22;;;;;;;26.13;17.52;;;;;;;9.19;100.00;92554.88;5087336;28;20047;-71
2023/04/18 04:39:49;;;;;;;28.20;17.40;;;;;;;9.11;100.00;92534.69;5086361;28;20051;-71
2023/04/18 04:42:16;;;;;;;31.00;18.67;;;;;;;9.29;100.00;92560.25;5087088;28;20048;-71
2023/04/18 04:44:43;;;;;;;32.85;19.88;;;;;;;9.33;100.00;92558.84;5086223;28;20408;-72
2023/04/18 04:47:09;;;;;;;30.13;18.45;;;;;;;9.36;100.00;92560.19;5087481;28;20048;-72
2023/04/18 04:49:36;;;;;;;29.13;18.40;;;;;;;9.40;100.00;92563.84;5086778;28;20048;-72
2023/04/18 04:52:04;;;;;;;31.80;19.27;;;;;;;9.43;100.00;92554.94;5087179;28;20048;-72
2023/04/18 04:54:31;;;;;;;33.17;20.10;;;;;;;9.55;100.00;92568.59;5061116;28;20385;-72
2023/04/18 04:56:58;;;;;;;31.98;19.30;;;;;;;9.57;100.00;92552.97;5087486;28;20048;-72
2023/04/18 04:59:24;;;;;;;34.70;20.40;;;;;;;9.65;100.00;92567.25;5086687;28;20048;-72
2023/04/18 05:01:51;;;;;;;39.88;21.58;;;;;;;9.70;100.00;92557.13;5087411;28;20052;-72
2023/04/18 05:04:18;;;;;;;33.35;19.42;;;;;;;9.75;100.00;92562.38;5086965;28;20097;-72
2023/04/18 05:06:44;;;;;;;30.63;17.92;;;;;;;9.58;100.00;92539.94;5086838;28;20048;-72
2023/04/18 05:09:13;;;;;;;31.40;19.55;;;;;;;9.84;100.00;92560.28;5087184;28;20518;-72
2023/04/18 05:11:40;;;;;;;31.73;19.95;;;;;;;9.80;100.00;92559.94;5084307;28;20044;-72
2023/04/18 05:14:06;;;;;;;30.08;19.23;;;;;;;9.95;100.00;92561.31;5086740;28;20443;-72
2023/04/18 05:16:33;;;;;;;30.30;19.40;;;;;;;10.02;100.00;92562.78;5086889;28;20101;-72
2023/04/18 05:19:00;;;;;;;30.67;18.42;;;;;;;10.14;100.00;92565.34;5086953;28;20474;-72
2023/04/18 05:21:27;;;;;;;25.65;16.17;;;;;;;10.23;100.00;92565.00;5086715;28;20506;-72
2023/04/18 05:23:54;;;;;;;26.55;17.40;;;;;;;10.28;100.00;92563.31;5087026;28;20107;-72
2023/04/18 05:26:23;;;;;;;29.42;18.60;;;;;;;10.41;100.00;92569.22;5086717;28;20439;-72
2023/04/18 05:28:50;;;;;;;27.33;18.60;;;;;;;10.35;100.00;92570.13;5086503;28;20492;-72
2023/04/18 05:31:16;;;;;;;29.38;17.63;;;;;;;10.33;100.00;92574.72;5086466;28;20052;-72
2023/04/18 05:33:43;;;;;;;26.17;18.65;;;;;;;10.41;100.00;92567.47;5086985;28;20113;-71
2023/04/18 05:36:10;;;;;;;27.08;17.35;;;;;;;10.48;100.00;92571.72;5086701;28;20052;-71
2023/04/18 05:38:37;;;;;;;28.60;17.30;;;;;;;10.54;100.00;92581.88;5086630;28;20052;-71
2023/04/18 05:41:03;;;;;;;27.98;19.00;;;;;;;10.58;100.00;92566.00;5085933;28;20462;-72
2023/04/18 05:43:31;;;;;;;29.45;19.60;;;;;;;10.72;100.00;92585.31;5086685;28;20113;-72
2023/04/18 05:45:58;;;;;;;27.02;17.60;;;;;;;10.76;100.00;92578.72;5086176;28;20040;-72
2023/04/18 05:48:25;;;;;;;26.73;17.13;;;;;;;10.80;100.00;92579.06;5086608;28;20398;-72
2023/04/18 05:50:51;;;;;;;23.02;16.67;;;;;;;10.94;100.00;92582.16;5086723;28;20044;-71
2023/04/18 05:53:18;;;;;;;22.50;15.45;;;;;;;11.04;100.00;92581.56;5086669;28;20385;-71
2023/04/18 05:55:47;;;;;;;17.83;12.85;;;;;;;11.12;100.00;92585.56;5087540;28;20089;-72
2023/04/18 05:58:14;;;;;;;19.63;13.15;;;;;;;11.23;100.00;92585.56;5090139;28;20170;-72
2023/04/18 06:00:43;;;;;;;18.77;12.63;;;;;;;11.34;100.00;92583.16;5089409;28;20040;-72
2023/04/18 06:03:09;;;;;;;17.48;12.20;;;;;;;11.44;100.00;92574.84;5090774;28;20043;-72
2023/04/18 06:05:36;;;;;;;14.13;11.15;;;;;;;11.64;100.00;92587.28;5089605;28;20481;-72
2023/04/18 06:08:03;;;;;;;12.57;9.75;;;;;;;11.57;100.00;92591.81;5090340;28;20093;-72
2023/04/18 06:10:30;;;;;;;14.68;10.25;;;;;;;11.73;100.00;92591.06;5090165;28;20048;-72
2023/04/18 06:12:56;;;;;;;14.55;10.82;;;;;;;11.79;100.00;92591.91;5090296;28;20044;-72
2023/04/18 06:15:23;;;;;;;13.38;9.02;;;;;;;11.82;100.00;92598.38;5089748;28;20044;-71
2023/04/18 06:17:51;;;;;;;12.40;9.45;;;;;;;11.88;100.00;92600.03;5089678;28;20083;-72
2023/04/18 06:20:18;;;;;;;10.10;7.35;;;;;;;11.83;100.00;92590.44;5089902;28;20492;-72
2023/04/18 06:22:45;;;;;;;9.75;7.68;;;;;;;11.83;100.00;92593.00;5090127;28;20189;-72
2023/04/18 06:25:12;;;;;;;9.75;6.75;;;;;;;11.77;100.00;92602.41;5087144;28;20040;-72
2023/04/18 06:27:38;;;;;;;12.55;8.45;;;;;;;11.73;100.00;92595.41;5089618;28;20109;-72
2023/04/18 06:30:06;;;;;;;18.75;12.27;;;;;;;11.01;100.00;92589.75;5088720;28;20044;-72
2023/04/18 06:32:34;;;;;;;15.98;11.38;;;;;;;10.72;100.00;92567.34;5088371;28;20044;-72
2023/04/18 06:35:02;;;;;;;22.67;14.73;;;;;;;10.82;100.00;92574.47;5089227;28;20097;-72
2023/04/18 06:37:29;;;;;;;19.10;13.60;;;;;;;10.81;100.00;92572.91;5089635;28;20427;-72
2023/04/18 06:39:55;;;;;;;20.85;14.00;;;;;;;10.80;100.00;92577.25;5088877;28;20056;-72
2023/04/18 06:42:22;;;;;;;25.15;15.55;;;;;;;10.52;100.00;92573.59;5089866;28;20113;-72
2023/04/18 06:44:49;;;;;;;15.40;12.13;;;;;;;10.41;100.00;92571.81;5089590;28;20048;-72
2023/04/18 06:47:16;;;;;;;14.32;11.35;;;;;;;10.48;100.00;92575.09;5089595;28;20059;-72
2023/04/18 06:49:42;;;;;;;14.13;10.75;;;;;;;10.46;100.00;92576.31;5089191;28;20056;-72
2023/04/18 06:52:10;;;;;;;17.73;13.70;;;;;;;10.37;100.00;92575.84;5089484;28;20089;-72
2023/04/18 06:54:37;;;;;;;12.73;9.90;;;;;;;10.68;100.00;92573.94;5088528;28;20105;-72
2023/04/18 06:57:04;;;;;;;11.82;8.98;;;;;;;10.72;100.00;92581.97;5089113;28;20102;-72
2023/04/18 06:59:31;;;;;;;12.30;9.45;;;;;;;10.79;100.00;92574.94;5089268;28;20056;-72
2023/04/18 07:01:57;;;;;;;11.13;7.95;;;;;;;10.79;100.00;92587.78;5075303;28;20048;-72
2023/04/18 07:04:24;;;;;;;11.00;8.20;;;;;;;10.95;100.00;92591.44;5084813;28;20052;-72
2023/04/18 07:06:51;;;;;;;12.80;9.88;;;;;;;11.23;100.00;92575.28;5088538;28;20121;-72
2023/04/18 07:09:21;;;;;;;13.77;10.57;;;;;;;11.65;100.00;92586.28;5088576;28;20052;-72
2023/04/18 07:11:49;;;;;;;11.43;8.90;;;;;;;11.60;100.00;92588.75;5084419;28;20044;-72
2023/04/18 07:14:18;;;;;;;13.68;9.35;;;;;;;11.95;100.00;92584.44;5088272;28;20055;-72
2023/04/18 07:16:45;;;;;;;10.07;7.65;;;;;;;12.34;100.00;92584.53;5077531;28;20050;-72
2023/04/18 07:19:12;;;;;;;9.95;8.10;;;;;;;12.47;100.00;92591.16;5085358;28;20056;-72
2023/04/18 07:21:41;;;;;;;10.25;7.82;;;;;;;12.68;100.00;92589.63;5088248;28;20040;-72
2023/04/18 07:24:08;;;;;;;11.70;8.38;;;;;;;13.16;100.00;92578.09;5062806;28;20080;-72
2023/04/18 07:26:45;;;;;;;9.57;7.40;;;;;;;13.34;100.00;92584.75;5086329;28;20806;-72
2023/04/18 07:29:11;;;;;;;11.88;7.93;;;;;;;13.66;100.00;92583.28;5083115;28;20090;-72
2023/04/18 07:31:38;;;;;;;7.80;6.20;;;;;;;13.59;100.00;92584.25;5061953;28;20048;-72
2023/04/18 07:34:05;;;;;;;5.05;3.92;;;;;;;13.63;100.00;92590.50;5088257;28;20458;-72
2023/04/18 07:36:32;;;;;;;5.10;4.18;;;;;;;13.59;100.00;92586.81;5088001;28;20043;-73
2023/04/18 07:38:58;;;;;;;6.55;4.18;;;;;;;13.49;100.00;92584.16;5087614;28;20051;-72
2023/04/18 07:41:25;;;;;;;8.60;5.80;;;;;;;13.48;100.00;92588.50;5087744;28;20051;-72
2023/04/18 07:43:53;;;;;;;6.40;4.90;;;;;;;13.22;100.00;92592.59;5087926;28;20097;-72
2023/04/18 07:46:20;;;;;;;6.32;4.90;;;;;;;12.93;100.00;92592.78;5087741;28;20412;-72
2023/04/18 07:48:46;;;;;;;6.00;4.60;;;;;;;12.65;100.00;92595.25;5087576;28;20097;-72
2023/04/18 07:51:13;;;;;;;7.68;5.80;;;;;;;12.92;100.00;92596.38;5083255;28;20048;-72
2023/04/18 07:53:42;;;;;;;7.57;5.50;;;;;;;13.32;100.00;92589.34;5087557;28;20056;-72
2023/04/18 07:56:09;;;;;;;7.15;5.13;;;;;;;13.65;100.00;92595.38;5088193;28;20097;-73
2023/04/18 07:58:36;;;;;;;8.32;5.43;;;;;;;13.83;100.00;92596.06;5087253;28;20035;-72
2023/04/18 08:01:04;;;;;;;7.93;5.30;;;;;;;13.98;100.00;92603.19;5087428;28;20122;-72
2023/04/18 08:03:33;;;;;;;8.65;5.20;;;;;;;14.13;100.00;92598.13;5087401;28;20070;-73
2023/04/18 08:06:01;;;;;;;5.90;4.47;;;;;;;14.00;98.15;92607.06;5073406;28;20040;-72
2023/04/18 08:08:28;;;;;;;5.72;4.57;;;;;;;14.03;98.11;92598.81;5083916;28;20190;-72
2023/04/18 08:11:00;;;;;;;10.05;5.97;;;;;;;13.76;99.69;92542.06;5082574;28;20055;-72
2023/04/18 08:13:27;;;;;;;7.15;5.05;;;;;;;14.18;99.13;92606.94;5068550;28;20597;-72
2023/04/18 08:15:58;;;;;;;6.13;4.50;;;;;;;14.12;95.67;92609.47;5068536;28;20048;-72
2023/04/18 08:18:35;;;;;;;6.35;4.63;;;;;;;14.14;98.45;92586.78;5083882;28;20059;-72
2023/04/18 08:21:04;;;;;;;7.55;5.80;;;;;;;14.38;100.00;92596.75;5088641;28;20056;-72
2023/04/18 08:23:31;;;;;;;7.40;4.65;;;;;;;13.51;100.00;92595.00;5088912;28;20105;-72
2023/04/18 08:25:58;;;;;;;6.53;4.72;;;;;;;13.73;100.00;92589.00;5088549;28;20844;-71
2023/04/18 08:28:25;;;;;;;6.53;4.55;;;;;;;13.03;100.00;92600.66;5088691;28;20163;-72
2023/04/18 08:30:53;;;;;;;8.90;6.43;;;;;;;12.86;100.00;92600.69;5088189;28;20056;-71
2023/04/18 08:33:22;;;;;;;8.75;5.88;;;;;;;13.11;98.60;92599.44;5086998;28;20131;-71
2023/04/18 08:35:50;;;;;;;7.50;5.60;;;;;;;13.42;97.06;92599.00;5087239;28;20036;-71
2023/04/18 08:38:18;;;;;;;10.85;7.70;;;;;;;13.48;96.58;92605.81;5086934;28;20097;-71
2023/04/18 08:40:44;;;;;;;8.27;6.05;;;;;;;13.78;100.00;92601.97;5076205;28;20125;-71
2023/04/18 08:43:13;;;;;;;6.25;5.03;;;;;;;13.70;94.05;92592.84;5081660;28;20071;-71
2023/04/18 08:45:40;;;;;;;7.82;5.30;;;;;;;13.95;93.52;92598.50;5087534;28;20048;-71
2023/04/18 08:48:11;;;;;;;6.30;4.57;;;;;;;13.72;91.31;92597.78;5087074;28;20097;-72
2023/04/18 08:50:38;;;;;;;6.85;4.78;;;;;;;12.89;92.16;92604.56;5076589;28;20049;-71
2023/04/18 08:53:06;;;;;;;6.70;5.25;;;;;;;13.00;95.05;92588.22;5080327;28;20049;-71
2023/04/18 08:55:34;;;;;;;9.38;5.70;;;;;;;12.90;92.76;92599.19;5077680;28;20497;-72
2023/04/18 08:58:01;;;;;;;6.68;5.20;;;;;;;13.39;98.06;92587.38;5087236;28;20040;-71
2023/04/18 09:00:28;;;;;;;5.90;4.40;;;;;;;13.64;89.38;92591.25;5087089;28;20101;-71
2023/04/18 09:02:55;;;;;;;6.32;4.13;;;;;;;13.49;92.20;92589.31;5086847;28;20048;-71
2023/04/18 09:05:24;;;;;;;7.60;4.95;;;;;;;13.57;91.03;92581.13;5086800;28;20052;-71
2023/04/18 09:07:52;;;;;;;8.43;4.88;;;;;;;13.68;90.14;92587.16;5081269;28;20443;-71
2023/04/18 09:10:28;;;;;;;5.57;4.18;;;;;;;13.79;85.83;92589.84;5078959;28;20488;-72
2023/04/18 09:12:56;;;;;;;12.48;7.13;;;;;;;13.56;91.19;92576.97;5069680;28;20090;-72
2023/04/18 09:15:25;;;;;;;10.13;5.15;;;;;;;13.95;89.30;92583.00;5086593;28;20043;-72
2023/04/18 09:17:54;;;;;;;7.45;4.78;;;;;;;13.60;87.27;92579.84;5086364;28;20047;-72
2023/04/18 09:20:36;;;;;;;9.93;5.97;;;;;;;13.63;90.11;92572.41;5086806;28;20048;-72
2023/04/18 09:23:05;;;;;;;7.90;5.40;;;;;;;13.75;91.12;92566.34;5086742;28;20146;-71
2023/04/18 09:25:34;;;;;;;9.15;6.18;;;;;;;13.46;94.28;92540.72;5086713;28;20556;-71
2023/04/18 09:28:02;;;;;;;31.17;16.35;;;;;;;13.47;88.65;92588.78;5086679;28;20443;-72
2023/04/18 09:30:35;;;;;;;10.93;6.25;;;;;;;13.40;89.62;92581.19;5089479;28;20407;-71
2023/04/18 09:33:03;;;;;;;5.47;3.85;;;;;;;13.30;88.12;92579.28;5089702;28;20257;-72
2023/04/18 09:35:30;;;;;;;16.30;9.45;;;;;;;13.48;89.55;92587.75;5090944;28;20044;-72
2023/04/18 09:37:56;;;;;;;6.28;4.18;;;;;;;13.59;87.30;92573.94;5090181;28;20036;-72
2023/04/18 09:40:23;;;;;;;5.78;4.05;;;;;;;13.77;87.24;92566.84;5090250;28;20080;-72
2023/04/18 09:42:53;;;;;;;5.32;4.10;;;;;;;13.88;87.61;92573.66;5090095;28;20123;-72
2023/04/18 09:45:20;;;;;;;5.97;4.18;;;;;;;13.64;84.74;92578.34;5090451;28;20072;-71
2023/04/18 09:47:47;;;;;;;5.05;4.05;;;;;;;13.79;84.30;92572.53;5089881;28;20043;-72
2023/04/18 09:50:15;;;;;;;6.20;3.85;;;;;;;13.82;82.64;92560.94;5090218;28;20641;-71
2023/04/18 09:52:43;;;;;;;8.38;4.05;;;;;;;14.07;82.92;92570.69;5089676;28;20052;-72
2023/04/18 09:55:11;;;;;;;9.15;5.75;;;;;;;14.46;85.84;92553.38;5090393;28;20044;-71
2023/04/18 09:57:40;;;;;;;5.05;3.72;;;;;;;14.21;80.55;92572.88;5089870;28;20578;-71
2023/04/18 10:00:13;;;;;;;7.68;6.20;;;;;;;14.00;81.94;92547.69;5090100;28;20051;-72
2023/04/18 10:02:51;;;;;;;4.70;3.63;;;;;;;13.60;80.72;92556.63;5083351;28;20040;-71
2023/04/18 10:05:20;;;;;;;5.60;4.35;;;;;;;13.31;81.17;92477.66;5085758;28;20048;-71
2023/04/18 10:07:49;;;;;;;4.60;3.63;;;;;;;13.90;79.77;92566.44;5090218;28;20047;-71
2023/04/18 10:10:16;;;;;;;5.03;3.25;;;;;;;13.99;78.52;92566.00;5089789;28;20084;-72
2023/04/18 10:12:46;;;;;;;6.28;4.18;;;;;;;14.28;81.91;92560.53;5081309;28;20816;-71
2023/04/18 10:15:16;;;;;;;4.93;3.35;;;;;;;13.96;81.66;92554.34;5088604;28;20036;-72
2023/04/18 10:17:53;;;;;;;5.25;3.85;;;;;;;13.73;85.39;92535.59;5089817;28;20434;-72
2023/04/18 10:20:21;;;;;;;6.75;5.35;;;;;;;13.81;84.60;92538.75;5089580;28;20491;-72
2023/04/18 10:22:49;;;;;;;6.30;4.68;;;;;;;13.93;88.07;92547.09;5089625;28;20079;-71
2023/04/18 10:25:47;;;;;;;8.65;4.68;;;;;;;14.20;89.65;92537.75;5089006;28;20072;-71
2023/04/18 10:28:14;;;;;;;6.47;4.32;;;;;;;14.38;92.79;92542.50;5089244;28;20141;-71
2023/04/18 10:31:01;;;;;;;7.43;4.85;;;;;;;14.18;93.14;92529.44;5082973;28;20046;-71
2023/04/18 10:33:37;;;;;;;7.75;4.35;;;;;;;14.22;90.46;92544.22;5081971;28;20106;-72
2023/04/18 10:36:13;;;;;;;8.75;4.93;;;;;;;14.46;92.71;92545.63;5089804;28;20048;-72
2023/04/18 10:38:44;;;;;;;;;;;;;;;14.02;94.83;92535.28;5088941;28;20076;-71
2023/04/18 10:41:15;;;;;;;13.68;7.55;;;;;;;13.82;95.27;92548.03;5088692;28;19931;-71
2023/04/18 10:44:21;;;;;;;18.83;8.30;;;;;;;13.72;100.00;92528.88;5089249;28;20036;-71
2023/04/18 10:47:21;;;;;;;12.73;5.75;;;;;;;13.87;97.82;92533.38;5088938;28;20059;-71
2023/04/18 10:50:02;;;;;;;7.47;4.28;;;;;;;13.35;95.46;92548.41;5088901;28;20079;-71
2023/04/18 10:52:30;;;;;;;5.93;4.18;;;;;;;13.57;100.00;92542.41;5088417;28;20051;-71
2023/04/18 10:55:18;;;;;;;7.35;4.70;;;;;;;13.57;100.00;92545.00;5088546;28;20056;-71
2023/04/18 10:57:47;;;;;;;5.65;4.00;;;;;;;13.23;98.02;92542.56;5063740;28;20062;-72
2023/04/18 11:00:16;;;;;;;6.15;4.07;;;;;;;12.95;95.83;92519.34;5088354;28;20117;-72
2023/04/18 11:05:36;;;;;;;6.07;4.60;;;;;;;12.99;97.87;92545.41;5088652;28;20217;-72
2023/04/18 11:08:03;;;;;;;8.02;4.65;;;;;;;12.93;100.00;92541.22;5089029;28;20093;-71
2023/04/18 11:10:30;;;;;;;6.57;4.38;;;;;;;12.92;99.47;92539.66;5087298;28;20043;-71
2023/04/18 11:13:03;;;;;;;6.20;4.60;;;;;;;13.06;100.00;92530.53;5074593;28;20043;-71
2023/04/18 11:15:29;;;;;;;9.18;4.88;;;;;;;13.19;100.00;92520.88;5088208;28;20059;-71
2023/04/18 11:18:00;;;;;;;7.30;4.97;;;;;;;13.47;100.00;92516.53;5088380;28;20481;-71
2023/04/18 11:20:27;;;;;;;5.40;4.10;;;;;;;13.12;100.00;92530.59;5088762;28;20052;-71
2023/04/18 11:22:56;;;;;;;7.95;4.18;;;;;;;12.92;100.00;92532.69;5088381;28;20181;-72
2023/04/18 11:25:25;;;;;;;9.23;5.15;;;;;;;13.14;100.00;92523.41;5088085;28;20412;-71
2023/04/18 11:27:53;;;;;;;7.82;4.72;;;;;;;13.09;100.00;92519.75;5087974;28;20040;-72
2023/04/18 11:30:21;;;;;;;6.95;4.25;;;;;;;12.95;99.59;92519.34;5088624;28;20411;-72